UKBB Airport Information

Runway Information
Runway 18L Length 13123 ft width 197 ft
Elevation 410 ft Threshold 0 ft Heading 183
Runway 36R Length 13123 ft Width 197 ft
Elevation 422 ft Threshold 0 ft Heading 3
Runway 18R Length 11483 ft width 206 ft
Elevation 419 ft Threshold 0 ft Heading 183
Runway 36L Length 11483 ft Width 206 ft
Elevation 403 ft Threshold 0 ft Heading 3
Airport Frequencies
Type ATIS Name ATIS Frequency 126.7 MHZ
Type CLD Name DLV Frequency 130.275 MHZ
Type GND Name GND Frequency 118.05 MHZ
Type OPS Name OPS Frequency 131.775 MHZ
Type RDR Name KYIV RADAR Frequency 124.675 MHZ
Type TWR Name TWR Frequency 119.65 MHZ
Airport Navaids
Type NDB Name Boryspil Frequency 310 KHZ
Type VOR-DME Name Boryspil Frequency 115900 KHZ
Type NDB Name Boryspil Frequency 825 KHZ
Type NDB Name Boryspil Frequency 825 KHZ
Type NDB Name Boryspil Frequency 310 KHZ
Airport Weather Information & NOTAM
ADDS - METARS form results

(0938 UTC 19 September 2018)
Data provider http://aviationweather.gov/metar/data/
 
METAR text: UKBB 190930Z 25004MPS 200V320 CAVOK 24/12 Q1023 R18L/CLRD// NOSIG
Conditions at: UKBB (BORISPOL'/KIEV , UA) observed 0930 UTC 19 September 2018
Temperature: 24.0°C (75°F)
Dewpoint: 12.0°C (54°F) [RH = 47%]
Pressure (altimeter): 30.21 inches Hg (1023.0 mb)
Winds: from the WSW (250 degrees) at 9 MPH (8 knots; 4.1 m/s)
Visibility: 6 or more miles (10+ km)
Ceiling: ceiling and visibility are OK
Clouds: unknown
Weather: no significant weather observed at this time

METAR text: UKBB 190900Z 24003MPS 210V270 CAVOK 24/11 Q1023 R18L/CLRD// NOSIG
Conditions at: UKBB (BORISPOL'/KIEV , UA) observed 0900 UTC 19 September 2018
Temperature: 24.0°C (75°F)
Dewpoint: 11.0°C (52°F) [RH = 44%]
Pressure (altimeter): 30.21 inches Hg (1023.0 mb)
Winds: from the WSW (240 degrees) at 7 MPH (6 knots; 3.1 m/s)
Visibility: 6 or more miles (10+ km)
Ceiling: ceiling and visibility are OK
Clouds: unknown
Weather: no significant weather observed at this time

Forecast for: UKBB (BORISPOL'/KIEV , UA)
Text: TAF UKBB 190502Z 1906/2006 24003G08MPS CAVOK TX26/1912Z TN08/2003Z
Forecast period: 0600 UTC 19 September 2018 to 0600 UTC 20 September 2018
Forecast type: FROM: standard forecast or significant change
Winds: from the WSW (240 degrees) at 7 MPH (6 knots; 3.1 m/s)
gusting to 18 MPH (16 knots; 8.2 m/s)
Visibility: 6 or more miles 10+ km)
Ceiling: unknown
Clouds: missing
Weather: no significant weather forecast for this period
Text: TEMPO 2000/2005 2000 BR SCT006
Forecast period: 0000 to 0500 UTC 20 September 2018
Forecast type: TEMPORARY: The following changes expected for less than half the time period
Visibility: 1.24 miles (2.00 km)
Ceiling: at least 12,000 feet AGL
Clouds: scattered clouds at 600 feet AGL
Weather: BR  (mist)